Palo Alto, CA

5:59 PM PST on February 07, 2016 (GMT -0800)
Palo Alto Of Santa Clara County | | Change Station
CLOSE
Current Station
Airport
Location: Palo Alto,
Elevation: 7 ft
Nearby Weather Stations

Elev 7 ft 37.46 °N, 122.12 °W | Updated 12 minutes ago

Clear
Clear
64 °F
Feels Like 64 °F
N
13
Wind Variable Wind from ENE

Today
High -- | Low -- °F
--% Chance of Precip.
Yesterday
High -- | Low -- °F
Precip. -- in
Pressure 30.19 in
Visibility 30.0 miles
Clouds Clear
Dew Point 50 °F
Humidity 59%
Rainfall 0.00 in
Snow Depth Not available.
7:06 AM 5:38 PM
Waning Crescent, 0% visible
METAR KPAO 080147Z 06011KT 30SM SKC 18/10 A3019
Pressure 30.19 in
Visibility 30.0 miles
Clouds Clear
Dew Point 50 °F
Humidity 59%
Rainfall 0.00 in
Snow Depth Not available.
7:06 AM 5:38 PM
Waning Crescent, 0% visible
METAR KPAO 080147Z 06011KT 30SM SKC 18/10 A3019

10-Day Weather Forecast

Almanac

Astronomy

Feb. 07, 2016 Rise Set
Actual Time
Civil Twilight
Nautical Twilight
Astronomical Twilight
Moon
Length of Visible Light
Length of Day
Tomorrow will be .
, % of the Moon is Illuminated

Today's Extremes

State Highs State Lows

Community

WunderPhotos

Upload Photos

1,891,355 photos uploaded!

WunderBlog® & News

Nearby

Air Quality

  Air Quality AQ Index Pollutant
Not available.

Snow Depth

Station Depth Elevation

Earthquake Activity

City Distance Mag. Time & Date
Minimum magnitude displayed is 2.5.

Coastal Water Temperatures

Place Temperature

Stations

Nearby Weather Stations

Station Location Temp. Windchill Dew Point Humidity Wind Precip. Elev Updated Type
                   

Watches & Warnings

There are currently no watches in effect.